createdAt,value
2022-10-18T00:01:44.196Z,26.63
2022-10-18T00:05:47.393Z,26.27
2022-10-18T00:09:48.861Z,24.95
2022-10-18T00:13:50.668Z,23.70
2022-10-18T00:17:52.363Z,26.27
2022-10-18T00:21:53.887Z,22.83
2022-10-18T00:26:23.528Z,23.90
2022-10-18T00:30:25.349Z,24.83
2022-10-18T00:34:26.938Z,24.90
2022-10-18T00:38:28.501Z,23.17
2022-10-18T00:42:32.823Z,25.40
2022-10-18T00:46:37.518Z,27.10
2022-10-18T00:50:40.401Z,24.95
2022-10-18T00:54:44.381Z,24.58
2022-10-18T00:58:48.428Z,25.40
2022-10-18T01:02:49.992Z,24.45
2022-10-18T01:07:01.448Z,24.48
2022-10-18T01:11:26.598Z,25.20
2022-10-18T01:15:32.800Z,24.08
2022-10-18T01:20:17.691Z,25.75
2022-10-18T01:24:51.921Z,24.85
2022-10-18T01:29:08.766Z,26.75
2022-10-18T01:33:18.963Z,25.35
2022-10-18T01:37:22.507Z,26.38
2022-10-18T01:41:25.927Z,27.45
2022-10-18T01:45:28.484Z,27.13
2022-10-18T01:49:30.012Z,23.95
2022-10-18T01:53:33.866Z,25.60
2022-10-18T01:58:02.199Z,25.63
2022-10-18T02:02:23.633Z,27.17
2022-10-18T02:06:31.284Z,23.35
2022-10-18T02:10:41.133Z,24.23
2022-10-18T02:14:44.987Z,25.23
2022-10-18T02:18:58.730Z,23.30
2022-10-18T02:23:01.579Z,26.52
2022-10-18T02:27:03.468Z,26.00
2022-10-18T02:31:20.244Z,27.20
2022-10-18T02:35:37.506Z,24.20
2022-10-18T02:39:50.298Z,26.48
2022-10-18T02:43:52.094Z,27.27
2022-10-18T02:47:53.696Z,25.48
2022-10-18T02:51:55.277Z,27.30
2022-10-18T02:55:57.003Z,28.63
2022-10-18T02:59:58.574Z,27.67
2022-10-18T03:04:00.179Z,27.38
2022-10-18T03:08:01.644Z,27.17
2022-10-18T03:12:03.350Z,26.17
2022-10-18T03:16:05.210Z,24.90
2022-10-18T03:20:07.397Z,26.85
2022-10-18T03:24:08.954Z,25.48
2022-10-18T03:28:10.645Z,26.45
2022-10-18T03:32:12.122Z,25.30
2022-10-18T03:36:14.440Z,28.40
2022-10-18T03:40:16.356Z,26.55
2022-10-18T03:44:17.962Z,25.13
2022-10-18T03:48:19.434Z,26.15
2022-10-18T03:52:20.991Z,26.98
2022-10-18T03:56:22.508Z,26.23
2022-10-18T04:00:24.009Z,25.13
2022-10-18T04:04:25.548Z,27.23
2022-10-18T04:08:27.339Z,25.08
2022-10-18T04:12:29.142Z,24.88
2022-10-18T04:16:30.846Z,26.38
2022-10-18T04:20:32.419Z,23.83
2022-10-18T04:24:33.936Z,24.17
2022-10-18T04:28:39.820Z,25.45
2022-10-18T04:32:41.583Z,24.83
2022-10-18T04:36:43.098Z,23.42
2022-10-18T04:40:44.752Z,24.40
2022-10-18T04:44:46.300Z,23.42
2022-10-18T04:48:47.938Z,26.73
2022-10-18T04:56:54.158Z,24.77
2022-10-18T05:00:55.776Z,25.48
2022-10-18T05:04:57.479Z,23.17
2022-10-18T05:26:23.592Z,22.23
2022-10-18T05:30:26.889Z,21.83
2022-10-18T05:34:31.985Z,21.10
2022-10-18T05:38:33.626Z,20.10
2022-10-18T05:42:35.288Z,23.08
2022-10-18T05:46:37.044Z,20.92
2022-10-18T05:50:40.362Z,21.90
2022-10-18T05:54:42.109Z,18.77
2022-10-18T05:58:43.748Z,22.75
2022-10-18T06:02:45.409Z,21.58
2022-10-18T06:06:47.072Z,19.75
2022-10-18T06:10:48.749Z,21.08
2022-10-18T06:14:50.340Z,21.92
2022-10-18T06:18:54.773Z,21.45
2022-10-18T06:22:56.460Z,20.45
2022-10-18T06:26:58.162Z,21.27
2022-10-18T06:30:59.924Z,20.05
2022-10-18T06:35:01.677Z,20.02
2022-10-18T06:39:03.472Z,19.90
2022-10-18T06:43:20.192Z,19.45
2022-10-18T06:47:22.918Z,19.08
2022-10-18T06:51:24.702Z,18.95
2022-10-18T06:55:32.340Z,18.42
2022-10-18T07:00:27.789Z,19.45
2022-10-18T07:04:30.305Z,17.83
2022-10-18T07:08:32.901Z,18.55
2022-10-18T07:12:34.590Z,17.35
2022-10-18T07:16:36.285Z,18.00
2022-10-18T07:20:37.813Z,18.48
2022-10-18T07:24:39.416Z,18.35
2022-10-18T07:28:41.356Z,18.33
2022-10-18T07:32:46.261Z,19.60
2022-10-18T07:36:57.151Z,17.27
2022-10-18T07:41:00.426Z,18.35
2022-10-18T07:45:05.975Z,17.85
2022-10-18T07:49:38.336Z,17.50
2022-10-18T07:54:13.928Z,15.18
2022-10-18T07:58:15.468Z,16.60
2022-10-18T08:02:16.947Z,15.70
2022-10-18T08:07:14.025Z,15.27
2022-10-18T08:11:44.497Z,15.95
2022-10-18T08:21:51.543Z,18.52
2022-10-18T08:25:53.315Z,16.95
2022-10-18T08:29:54.878Z,17.40
2022-10-18T08:34:00.025Z,16.98
2022-10-18T08:38:01.803Z,18.40
2022-10-18T08:42:25.110Z,17.45
2022-10-18T08:46:44.505Z,16.33
2022-10-18T08:56:54.431Z,18.88
2022-10-18T09:00:55.843Z,17.48
2022-10-18T09:05:47.600Z,19.30
2022-10-18T09:10:26.550Z,17.92
2022-10-18T09:15:18.365Z,19.50
2022-10-18T09:19:46.930Z,18.75
2022-10-18T09:24:14.900Z,17.73
2022-10-18T09:28:41.768Z,18.65
2022-10-18T09:33:35.620Z,18.02
2022-10-18T09:38:04.282Z,16.48
2022-10-18T09:42:17.399Z,17.15
2022-10-18T09:47:22.579Z,15.38
2022-10-18T09:57:49.278Z,15.23
2022-10-18T10:01:54.003Z,16.77
2022-10-18T10:06:38.899Z,15.73
2022-10-18T10:11:25.529Z,15.35
2022-10-18T10:15:31.212Z,15.40
2022-10-18T10:19:59.248Z,15.65
2022-10-18T10:24:27.366Z,15.77
2022-10-18T10:28:41.211Z,13.23
2022-10-18T10:32:47.493Z,15.27
2022-10-18T10:36:54.590Z,15.63
2022-10-18T10:41:24.340Z,15.75
2022-10-18T10:46:16.953Z,17.17
2022-10-18T10:50:28.213Z,15.02
2022-10-18T10:54:35.784Z,16.77
2022-10-18T10:58:40.549Z,15.70
2022-10-18T11:08:58.638Z,12.57
2022-10-18T11:13:31.803Z,12.10
2022-10-18T11:17:40.240Z,11.90
2022-10-18T11:21:42.834Z,10.55
2022-10-18T11:26:03.111Z,12.02
2022-10-18T11:30:35.498Z,9.38
2022-10-18T11:34:52.347Z,8.07
2022-10-18T11:39:09.097Z,9.15
2022-10-18T11:43:30.260Z,7.63
2022-10-18T11:48:17.604Z,6.50
2022-10-18T11:56:37.447Z,5.72
2022-10-18T12:01:00.123Z,5.63
2022-10-18T12:05:22.456Z,4.68
2022-10-18T12:09:35.473Z,5.25
2022-10-18T12:13:53.473Z,4.10
2022-10-18T12:17:59.835Z,4.38
2022-10-18T12:22:14.235Z,3.58
2022-10-18T12:26:17.065Z,3.83
2022-10-18T12:30:54.268Z,2.90
2022-10-18T12:35:11.335Z,3.35
2022-10-18T12:39:37.670Z,3.50
2022-10-18T12:44:00.795Z,3.10
2022-10-18T12:48:06.922Z,2.28
2022-10-18T12:52:22.288Z,2.90
2022-10-18T12:56:30.573Z,2.20
2022-10-18T13:00:32.372Z,2.22
2022-10-18T13:04:35.256Z,1.83
2022-10-18T13:08:41.800Z,1.40
2022-10-18T13:12:43.364Z,1.92
2022-10-18T13:16:57.161Z,1.40
2022-10-18T13:21:19.154Z,1.35
2022-10-18T13:25:23.636Z,1.58
2022-10-18T13:29:41.249Z,1.50
2022-10-18T13:33:43.086Z,1.40
2022-10-18T13:37:58.292Z,1.42
2022-10-18T13:42:00.745Z,1.50
2022-10-18T13:46:05.459Z,1.92
2022-10-18T13:50:30.735Z,1.60
2022-10-18T13:54:35.498Z,1.60
2022-10-18T13:59:14.342Z,2.08
2022-10-18T14:08:10.246Z,2.33
2022-10-18T14:12:31.936Z,2.20
2022-10-18T14:17:03.972Z,1.83
2022-10-18T14:21:21.105Z,2.40
2022-10-18T14:25:29.660Z,2.15
2022-10-18T14:29:31.339Z,1.88
2022-10-18T14:33:43.036Z,2.50
2022-10-18T14:37:47.698Z,1.73
2022-10-18T14:41:52.057Z,1.65
2022-10-18T14:45:53.701Z,2.33
2022-10-18T14:49:57.636Z,2.13
2022-10-18T14:54:00.125Z,2.10
2022-10-18T14:58:02.700Z,2.13
2022-10-18T15:02:14.309Z,2.00
2022-10-18T15:06:20.065Z,2.72
2022-10-18T15:10:33.502Z,2.75
2022-10-18T15:14:36.565Z,3.05
2022-10-18T15:18:38.084Z,2.58
2022-10-18T15:22:39.670Z,2.75
2022-10-18T15:26:44.568Z,2.33
2022-10-18T15:30:46.261Z,2.35
2022-10-18T15:34:47.946Z,2.80
2022-10-18T15:38:50.111Z,2.70
2022-10-18T15:42:57.611Z,2.58
2022-10-18T15:47:20.468Z,2.75
2022-10-18T15:51:49.190Z,2.65
2022-10-18T15:56:00.659Z,2.60
2022-10-18T16:00:06.826Z,3.17
2022-10-18T16:04:19.990Z,2.78
2022-10-18T16:08:30.214Z,3.90
2022-10-18T16:12:31.661Z,3.75
2022-10-18T16:16:33.540Z,3.53
2022-10-18T16:20:35.479Z,2.88
2022-10-18T16:24:36.969Z,3.45
2022-10-18T16:28:38.768Z,3.38
2022-10-18T16:32:40.997Z,3.80
2022-10-18T16:36:42.986Z,3.40
2022-10-18T16:40:45.962Z,3.05
2022-10-18T16:44:48.932Z,3.85
2022-10-18T16:48:51.725Z,3.65
2022-10-18T16:52:53.383Z,3.42
2022-10-18T16:56:54.912Z,4.00
2022-10-18T17:00:58.025Z,4.25
2022-10-18T17:04:59.702Z,5.07
2022-10-18T17:09:01.445Z,4.60
2022-10-18T17:13:03.046Z,4.47
2022-10-18T17:17:04.728Z,4.05
2022-10-18T17:21:06.403Z,3.35
2022-10-18T17:25:08.431Z,3.80
2022-10-18T17:29:10.151Z,3.65
2022-10-18T17:33:13.053Z,3.58
2022-10-18T17:37:15.375Z,3.83
2022-10-18T17:41:17.122Z,3.60
2022-10-18T17:45:20.215Z,4.03
2022-10-18T17:49:22.171Z,4.50
2022-10-18T17:53:28.436Z,4.45
2022-10-18T17:57:30.316Z,4.43
2022-10-18T18:01:32.295Z,4.35
2022-10-18T18:05:34.342Z,4.88
2022-10-18T18:09:36.311Z,4.25
2022-10-18T18:13:38.088Z,6.07
2022-10-18T18:17:56.049Z,7.45
2022-10-18T18:21:59.293Z,5.35
2022-10-18T18:26:00.812Z,5.50
2022-10-18T18:30:02.436Z,6.65
2022-10-18T18:34:03.938Z,6.25
2022-10-18T18:38:05.433Z,7.10
2022-10-18T18:42:07.397Z,5.63
2022-10-18T18:46:09.472Z,6.43
2022-10-18T18:50:11.144Z,4.97
2022-10-18T18:54:14.301Z,4.95
2022-10-18T18:58:16.671Z,7.00
2022-10-18T19:02:18.253Z,6.13
2022-10-18T19:06:25.467Z,7.00
2022-10-18T19:10:30.460Z,6.30
2022-10-18T19:14:36.447Z,5.80
2022-10-18T19:18:39.361Z,6.50
2022-10-18T19:22:41.749Z,6.13
2022-10-18T19:26:48.653Z,5.55
2022-10-18T19:30:50.600Z,6.03
2022-10-18T19:34:52.782Z,6.13
2022-10-18T19:39:30.101Z,6.15
2022-10-18T19:44:22.221Z,5.95
2022-10-18T19:48:24.004Z,5.82
2022-10-18T19:52:42.010Z,7.35
2022-10-18T20:02:44.699Z,7.85
2022-10-18T20:06:48.709Z,6.95
2022-10-18T20:10:50.531Z,6.68
2022-10-18T20:15:27.524Z,7.05
2022-10-18T20:26:06.925Z,6.80
2022-10-18T20:30:45.408Z,7.00
2022-10-18T20:34:47.128Z,7.45
2022-10-18T20:39:40.328Z,7.03
2022-10-18T20:44:34.780Z,7.97
2022-10-18T20:48:38.839Z,6.55
2022-10-18T20:52:40.455Z,6.78
2022-10-18T20:56:42.274Z,7.43
2022-10-18T21:00:43.745Z,9.13
2022-10-18T21:04:48.882Z,9.60
2022-10-18T21:09:05.769Z,8.63
2022-10-18T21:13:35.518Z,7.47
2022-10-18T21:17:37.096Z,7.47
2022-10-18T21:21:42.236Z,7.90
2022-10-18T21:25:45.388Z,7.45
2022-10-18T21:29:50.096Z,7.38
2022-10-18T21:34:28.207Z,7.45
2022-10-18T21:38:31.059Z,8.18
2022-10-18T21:42:32.835Z,6.95
2022-10-18T21:46:35.200Z,7.82
2022-10-18T21:50:36.669Z,7.72
2022-10-18T21:54:38.132Z,7.55
2022-10-18T21:58:40.318Z,7.25
2022-10-18T22:02:42.072Z,6.95
2022-10-18T22:06:43.663Z,7.65
2022-10-18T22:10:45.390Z,7.68
2022-10-18T22:14:47.121Z,8.07
2022-10-18T22:18:50.509Z,7.05
2022-10-18T22:22:53.939Z,8.57
2022-10-18T22:26:56.063Z,8.30
2022-10-18T22:30:57.781Z,8.13
2022-10-18T22:34:59.325Z,8.05
2022-10-18T22:39:00.908Z,8.60
2022-10-18T22:43:02.420Z,8.98
2022-10-18T22:47:03.917Z,9.27
2022-10-18T22:51:05.853Z,12.20
2022-10-18T22:55:07.961Z,10.50
2022-10-18T22:59:09.554Z,10.55
2022-10-18T23:03:11.572Z,12.10
2022-10-18T23:07:13.145Z,11.63
2022-10-18T23:11:15.133Z,11.60
2022-10-18T23:15:16.698Z,14.10
2022-10-18T23:19:18.210Z,13.63
2022-10-18T23:23:19.733Z,13.68
2022-10-18T23:27:21.224Z,15.75
2022-10-18T23:31:26.212Z,13.40
2022-10-18T23:35:28.871Z,14.60
2022-10-18T23:39:30.528Z,13.57
2022-10-18T23:43:32.505Z,13.38
2022-10-18T23:47:34.342Z,15.10
2022-10-18T23:51:36.191Z,14.15
2022-10-18T23:55:37.892Z,14.10
2022-10-18T23:59:39.356Z,14.95
